sensor_id;sensor_type;location;lat;lon;timestamp;P1;durP1;ratioP1;P2;durP2;ratioP2
6985;SDS011;3533;51.246;6.850;2023-04-24T00:02:22;0.60;;;0.60;;
6985;SDS011;3533;51.246;6.850;2023-04-24T00:04:48;0.80;;;0.73;;
6985;SDS011;3533;51.246;6.850;2023-04-24T00:07:14;0.70;;;0.70;;
6985;SDS011;3533;51.246;6.850;2023-04-24T00:09:41;0.80;;;0.60;;
6985;SDS011;3533;51.246;6.850;2023-04-24T00:12:10;0.70;;;0.70;;
6985;SDS011;3533;51.246;6.850;2023-04-24T00:14:36;0.97;;;0.87;;
6985;SDS011;3533;51.246;6.850;2023-04-24T00:17:01;0.67;;;0.60;;
6985;SDS011;3533;51.246;6.850;2023-04-24T00:19:27;0.60;;;0.60;;
6985;SDS011;3533;51.246;6.850;2023-04-24T00:21:53;1.10;;;0.60;;
6985;SDS011;3533;51.246;6.850;2023-04-24T00:24:19;2.40;;;1.20;;
6985;SDS011;3533;51.246;6.850;2023-04-24T00:26:45;0.67;;;0.67;;
6985;SDS011;3533;51.246;6.850;2023-04-24T00:29:10;0.80;;;0.60;;
6985;SDS011;3533;51.246;6.850;2023-04-24T00:31:36;0.90;;;0.60;;
6985;SDS011;3533;51.246;6.850;2023-04-24T00:34:02;0.70;;;0.60;;
6985;SDS011;3533;51.246;6.850;2023-04-24T00:36:28;0.80;;;0.70;;
6985;SDS011;3533;51.246;6.850;2023-04-24T00:38:53;0.83;;;0.83;;
6985;SDS011;3533;51.246;6.850;2023-04-24T00:41:20;0.63;;;0.57;;
6985;SDS011;3533;51.246;6.850;2023-04-24T00:43:46;1.03;;;0.73;;
6985;SDS011;3533;51.246;6.850;2023-04-24T00:46:12;0.70;;;0.70;;
6985;SDS011;3533;51.246;6.850;2023-04-24T00:48:38;0.70;;;0.60;;
6985;SDS011;3533;51.246;6.850;2023-04-24T00:51:05;0.70;;;0.70;;
6985;SDS011;3533;51.246;6.850;2023-04-24T00:53:30;0.70;;;0.70;;
6985;SDS011;3533;51.246;6.850;2023-04-24T00:55:56;0.90;;;0.80;;
6985;SDS011;3533;51.246;6.850;2023-04-24T00:58:22;0.70;;;0.60;;
6985;SDS011;3533;51.246;6.850;2023-04-24T01:00:48;0.80;;;0.60;;
6985;SDS011;3533;51.246;6.850;2023-04-24T01:03:15;0.80;;;0.70;;
6985;SDS011;3533;51.246;6.850;2023-04-24T01:05:41;0.90;;;0.70;;
6985;SDS011;3533;51.246;6.850;2023-04-24T01:08:07;0.70;;;0.70;;
6985;SDS011;3533;51.246;6.850;2023-04-24T01:10:33;0.70;;;0.70;;
6985;SDS011;3533;51.246;6.850;2023-04-24T01:13:01;0.60;;;0.53;;
6985;SDS011;3533;51.246;6.850;2023-04-24T01:15:26;0.60;;;0.60;;
6985;SDS011;3533;51.246;6.850;2023-04-24T01:17:52;0.77;;;0.57;;
6985;SDS011;3533;51.246;6.850;2023-04-24T01:20:17;0.73;;;0.73;;
6985;SDS011;3533;51.246;6.850;2023-04-24T01:22:44;0.70;;;0.70;;
6985;SDS011;3533;51.246;6.850;2023-04-24T01:25:09;0.60;;;0.60;;
6985;SDS011;3533;51.246;6.850;2023-04-24T01:27:35;0.70;;;0.60;;
6985;SDS011;3533;51.246;6.850;2023-04-24T01:30:00;1.53;;;0.70;;
6985;SDS011;3533;51.246;6.850;2023-04-24T01:32:26;0.60;;;0.50;;
6985;SDS011;3533;51.246;6.850;2023-04-24T01:34:53;0.83;;;0.83;;
6985;SDS011;3533;51.246;6.850;2023-04-24T01:37:20;0.80;;;0.63;;
6985;SDS011;3533;51.246;6.850;2023-04-24T01:39:45;0.70;;;0.70;;
6985;SDS011;3533;51.246;6.850;2023-04-24T01:42:11;0.70;;;0.70;;
6985;SDS011;3533;51.246;6.850;2023-04-24T01:44:38;0.70;;;0.67;;
6985;SDS011;3533;51.246;6.850;2023-04-24T01:47:04;0.60;;;0.60;;
6985;SDS011;3533;51.246;6.850;2023-04-24T01:49:30;0.80;;;0.70;;
6985;SDS011;3533;51.246;6.850;2023-04-24T01:51:57;0.80;;;0.77;;
6985;SDS011;3533;51.246;6.850;2023-04-24T01:54:23;0.70;;;0.70;;
6985;SDS011;3533;51.246;6.850;2023-04-24T01:56:48;1.10;;;0.90;;
6985;SDS011;3533;51.246;6.850;2023-04-24T01:59:14;0.93;;;0.90;;
6985;SDS011;3533;51.246;6.850;2023-04-24T02:01:41;0.70;;;0.70;;
6985;SDS011;3533;51.246;6.850;2023-04-24T02:04:08;0.80;;;0.80;;
6985;SDS011;3533;51.246;6.850;2023-04-24T02:06:33;0.77;;;0.77;;
6985;SDS011;3533;51.246;6.850;2023-04-24T02:08:59;0.80;;;0.70;;
6985;SDS011;3533;51.246;6.850;2023-04-24T02:11:25;0.70;;;0.70;;
6985;SDS011;3533;51.246;6.850;2023-04-24T02:13:51;0.80;;;0.70;;
6985;SDS011;3533;51.246;6.850;2023-04-24T02:16:20;0.80;;;0.80;;
6985;SDS011;3533;51.246;6.850;2023-04-24T02:18:46;0.80;;;0.80;;
6985;SDS011;3533;51.246;6.850;2023-04-24T02:21:11;0.90;;;0.90;;
6985;SDS011;3533;51.246;6.850;2023-04-24T02:23:37;0.70;;;0.70;;
6985;SDS011;3533;51.246;6.850;2023-04-24T02:26:02;0.80;;;0.80;;
6985;SDS011;3533;51.246;6.850;2023-04-24T02:28:28;0.80;;;0.63;;
6985;SDS011;3533;51.246;6.850;2023-04-24T02:30:53;1.13;;;1.03;;
6985;SDS011;3533;51.246;6.850;2023-04-24T02:33:19;0.90;;;0.80;;
6985;SDS011;3533;51.246;6.850;2023-04-24T02:35:44;0.70;;;0.70;;
6985;SDS011;3533;51.246;6.850;2023-04-24T02:38:10;0.90;;;0.80;;
6985;SDS011;3533;51.246;6.850;2023-04-24T02:40:36;0.80;;;0.80;;
6985;SDS011;3533;51.246;6.850;2023-04-24T02:43:01;1.17;;;0.90;;
6985;SDS011;3533;51.246;6.850;2023-04-24T02:45:27;1.00;;;0.90;;
6985;SDS011;3533;51.246;6.850;2023-04-24T02:47:52;0.97;;;0.90;;
6985;SDS011;3533;51.246;6.850;2023-04-24T02:50:18;0.80;;;0.80;;
6985;SDS011;3533;51.246;6.850;2023-04-24T02:52:43;0.83;;;0.83;;
6985;SDS011;3533;51.246;6.850;2023-04-24T02:55:09;0.80;;;0.77;;
6985;SDS011;3533;51.246;6.850;2023-04-24T02:57:34;0.80;;;0.80;;
6985;SDS011;3533;51.246;6.850;2023-04-24T03:00:00;1.17;;;1.07;;
6985;SDS011;3533;51.246;6.850;2023-04-24T03:02:25;0.90;;;0.90;;
6985;SDS011;3533;51.246;6.850;2023-04-24T03:04:51;0.80;;;0.80;;
6985;SDS011;3533;51.246;6.850;2023-04-24T03:07:16;1.07;;;0.93;;
6985;SDS011;3533;51.246;6.850;2023-04-24T03:09:45;0.80;;;0.80;;
6985;SDS011;3533;51.246;6.850;2023-04-24T03:12:11;1.00;;;0.90;;
6985;SDS011;3533;51.246;6.850;2023-04-24T03:14:37;0.73;;;0.70;;
6985;SDS011;3533;51.246;6.850;2023-04-24T03:17:02;1.13;;;1.00;;
6985;SDS011;3533;51.246;6.850;2023-04-24T03:19:27;1.00;;;0.90;;
6985;SDS011;3533;51.246;6.850;2023-04-24T03:21:53;1.00;;;0.77;;
6985;SDS011;3533;51.246;6.850;2023-04-24T03:24:19;1.00;;;0.90;;
6985;SDS011;3533;51.246;6.850;2023-04-24T03:26:45;1.10;;;1.00;;
6985;SDS011;3533;51.246;6.850;2023-04-24T03:29:11;1.20;;;0.93;;
6985;SDS011;3533;51.246;6.850;2023-04-24T03:31:36;0.80;;;0.80;;
6985;SDS011;3533;51.246;6.850;2023-04-24T03:34:02;0.83;;;0.83;;
6985;SDS011;3533;51.246;6.850;2023-04-24T03:36:27;0.90;;;0.83;;
6985;SDS011;3533;51.246;6.850;2023-04-24T03:38:53;1.00;;;0.90;;
6985;SDS011;3533;51.246;6.850;2023-04-24T03:41:18;1.00;;;0.90;;
6985;SDS011;3533;51.246;6.850;2023-04-24T03:43:44;1.10;;;1.00;;
6985;SDS011;3533;51.246;6.850;2023-04-24T03:46:10;0.90;;;0.90;;
6985;SDS011;3533;51.246;6.850;2023-04-24T03:48:35;1.00;;;1.00;;
6985;SDS011;3533;51.246;6.850;2023-04-24T03:51:01;1.40;;;1.30;;
6985;SDS011;3533;51.246;6.850;2023-04-24T03:53:26;0.90;;;0.90;;
6985;SDS011;3533;51.246;6.850;2023-04-24T03:55:52;1.00;;;1.00;;
6985;SDS011;3533;51.246;6.850;2023-04-24T03:58:18;1.23;;;1.10;;
6985;SDS011;3533;51.246;6.850;2023-04-24T04:00:44;1.20;;;1.10;;
6985;SDS011;3533;51.246;6.850;2023-04-24T04:03:11;1.10;;;1.00;;
6985;SDS011;3533;51.246;6.850;2023-04-24T04:05:38;0.97;;;0.97;;
6985;SDS011;3533;51.246;6.850;2023-04-24T04:08:03;1.17;;;1.10;;
6985;SDS011;3533;51.246;6.850;2023-04-24T04:10:29;1.10;;;1.00;;
6985;SDS011;3533;51.246;6.850;2023-04-24T04:12:54;1.30;;;1.20;;
6985;SDS011;3533;51.246;6.850;2023-04-24T04:15:20;1.37;;;1.00;;
6985;SDS011;3533;51.246;6.850;2023-04-24T04:17:46;1.07;;;1.00;;
6985;SDS011;3533;51.246;6.850;2023-04-24T04:20:11;1.30;;;1.20;;
6985;SDS011;3533;51.246;6.850;2023-04-24T04:22:37;1.03;;;1.03;;
6985;SDS011;3533;51.246;6.850;2023-04-24T04:25:03;1.23;;;1.13;;
6985;SDS011;3533;51.246;6.850;2023-04-24T04:27:29;1.20;;;1.10;;
6985;SDS011;3533;51.246;6.850;2023-04-24T04:29:57;0.97;;;0.90;;
6985;SDS011;3533;51.246;6.850;2023-04-24T04:32:33;1.00;;;1.00;;
6985;SDS011;3533;51.246;6.850;2023-04-24T04:34:59;1.30;;;1.20;;
6985;SDS011;3533;51.246;6.850;2023-04-24T04:37:28;1.03;;;1.00;;
6985;SDS011;3533;51.246;6.850;2023-04-24T04:40:01;1.30;;;1.20;;
6985;SDS011;3533;51.246;6.850;2023-04-24T04:42:31;1.10;;;1.00;;
6985;SDS011;3533;51.246;6.850;2023-04-24T04:44:58;2.20;;;1.10;;
6985;SDS011;3533;51.246;6.850;2023-04-24T04:47:24;1.10;;;1.00;;
6985;SDS011;3533;51.246;6.850;2023-04-24T04:49:51;1.07;;;0.97;;
6985;SDS011;3533;51.246;6.850;2023-04-24T04:52:17;0.90;;;0.90;;
6985;SDS011;3533;51.246;6.850;2023-04-24T04:54:43;1.20;;;1.10;;
6985;SDS011;3533;51.246;6.850;2023-04-24T04:57:09;1.20;;;1.10;;
6985;SDS011;3533;51.246;6.850;2023-04-24T04:59:35;0.97;;;0.97;;
6985;SDS011;3533;51.246;6.850;2023-04-24T05:02:02;1.20;;;1.10;;
6985;SDS011;3533;51.246;6.850;2023-04-24T05:04:27;1.30;;;1.20;;
6985;SDS011;3533;51.246;6.850;2023-04-24T05:06:53;1.30;;;1.20;;
6985;SDS011;3533;51.246;6.850;2023-04-24T05:09:18;1.10;;;1.10;;
6985;SDS011;3533;51.246;6.850;2023-04-24T05:11:44;0.93;;;0.93;;
6985;SDS011;3533;51.246;6.850;2023-04-24T05:14:09;1.20;;;1.10;;
6985;SDS011;3533;51.246;6.850;2023-04-24T05:16:35;1.27;;;1.17;;
6985;SDS011;3533;51.246;6.850;2023-04-24T05:19:02;1.30;;;1.20;;
6985;SDS011;3533;51.246;6.850;2023-04-24T05:21:28;1.07;;;1.03;;
6985;SDS011;3533;51.246;6.850;2023-04-24T05:23:54;1.47;;;1.30;;
6985;SDS011;3533;51.246;6.850;2023-04-24T05:26:19;1.50;;;1.40;;
6985;SDS011;3533;51.246;6.850;2023-04-24T05:28:45;1.13;;;1.03;;
6985;SDS011;3533;51.246;6.850;2023-04-24T05:31:10;1.30;;;1.20;;
6985;SDS011;3533;51.246;6.850;2023-04-24T05:33:37;3.00;;;1.50;;
6985;SDS011;3533;51.246;6.850;2023-04-24T05:36:02;2.70;;;2.50;;
6985;SDS011;3533;51.246;6.850;2023-04-24T05:38:28;1.40;;;1.30;;
6985;SDS011;3533;51.246;6.850;2023-04-24T05:40:54;1.17;;;1.07;;
6985;SDS011;3533;51.246;6.850;2023-04-24T05:43:20;1.00;;;1.00;;
6985;SDS011;3533;51.246;6.850;2023-04-24T05:45:45;1.20;;;1.10;;
6985;SDS011;3533;51.246;6.850;2023-04-24T05:48:11;1.20;;;1.10;;
6985;SDS011;3533;51.246;6.850;2023-04-24T05:50:36;1.27;;;1.17;;
6985;SDS011;3533;51.246;6.850;2023-04-24T05:53:02;1.03;;;1.00;;
6985;SDS011;3533;51.246;6.850;2023-04-24T05:55:28;1.30;;;1.10;;
6985;SDS011;3533;51.246;6.850;2023-04-24T05:57:55;1.40;;;1.30;;
6985;SDS011;3533;51.246;6.850;2023-04-24T06:00:20;1.30;;;1.20;;
6985;SDS011;3533;51.246;6.850;2023-04-24T06:02:46;1.33;;;1.20;;
6985;SDS011;3533;51.246;6.850;2023-04-24T06:05:12;1.30;;;1.20;;
6985;SDS011;3533;51.246;6.850;2023-04-24T06:07:37;1.40;;;1.27;;
6985;SDS011;3533;51.246;6.850;2023-04-24T06:10:03;1.30;;;1.20;;
6985;SDS011;3533;51.246;6.850;2023-04-24T06:12:29;1.30;;;1.20;;
6985;SDS011;3533;51.246;6.850;2023-04-24T06:14:54;2.30;;;1.40;;
6985;SDS011;3533;51.246;6.850;2023-04-24T06:17:20;1.30;;;1.20;;
6985;SDS011;3533;51.246;6.850;2023-04-24T06:19:46;1.00;;;1.00;;
6985;SDS011;3533;51.246;6.850;2023-04-24T06:22:12;1.00;;;1.00;;
6985;SDS011;3533;51.246;6.850;2023-04-24T06:24:39;1.73;;;1.20;;
6985;SDS011;3533;51.246;6.850;2023-04-24T06:27:05;1.30;;;1.20;;
6985;SDS011;3533;51.246;6.850;2023-04-24T06:29:30;1.40;;;1.30;;
6985;SDS011;3533;51.246;6.850;2023-04-24T06:31:56;1.30;;;1.20;;
6985;SDS011;3533;51.246;6.850;2023-04-24T06:34:21;1.10;;;1.00;;
6985;SDS011;3533;51.246;6.850;2023-04-24T06:36:47;2.10;;;1.30;;
6985;SDS011;3533;51.246;6.850;2023-04-24T06:39:12;1.37;;;1.27;;
6985;SDS011;3533;51.246;6.850;2023-04-24T06:41:38;1.10;;;1.00;;
6985;SDS011;3533;51.246;6.850;2023-04-24T06:44:04;1.30;;;1.20;;
6985;SDS011;3533;51.246;6.850;2023-04-24T06:46:30;1.10;;;1.00;;
6985;SDS011;3533;51.246;6.850;2023-04-24T06:48:56;1.27;;;1.17;;
6985;SDS011;3533;51.246;6.850;2023-04-24T06:51:22;1.30;;;1.20;;
6985;SDS011;3533;51.246;6.850;2023-04-24T06:53:48;1.07;;;1.03;;
6985;SDS011;3533;51.246;6.850;2023-04-24T06:56:14;1.20;;;1.10;;
6985;SDS011;3533;51.246;6.850;2023-04-24T06:58:40;1.20;;;1.10;;
6985;SDS011;3533;51.246;6.850;2023-04-24T07:01:06;1.03;;;1.03;;
6985;SDS011;3533;51.246;6.850;2023-04-24T07:03:32;1.20;;;1.10;;
6985;SDS011;3533;51.246;6.850;2023-04-24T07:05:57;1.40;;;1.30;;
6985;SDS011;3533;51.246;6.850;2023-04-24T07:08:23;1.23;;;1.13;;
6985;SDS011;3533;51.246;6.850;2023-04-24T07:10:49;1.20;;;1.10;;
6985;SDS011;3533;51.246;6.850;2023-04-24T07:13:15;1.20;;;1.10;;
6985;SDS011;3533;51.246;6.850;2023-04-24T07:15:42;1.40;;;1.30;;
6985;SDS011;3533;51.246;6.850;2023-04-24T07:18:07;1.67;;;1.10;;
6985;SDS011;3533;51.246;6.850;2023-04-24T07:20:33;1.13;;;1.07;;
6985;SDS011;3533;51.246;6.850;2023-04-24T07:22:59;1.20;;;1.10;;
6985;SDS011;3533;51.246;6.850;2023-04-24T07:25:24;1.20;;;1.10;;
6985;SDS011;3533;51.246;6.850;2023-04-24T07:27:50;1.20;;;1.10;;
6985;SDS011;3533;51.246;6.850;2023-04-24T07:30:15;1.67;;;1.00;;
6985;SDS011;3533;51.246;6.850;2023-04-24T07:32:41;1.30;;;1.20;;
6985;SDS011;3533;51.246;6.850;2023-04-24T07:35:07;1.13;;;1.03;;
6985;SDS011;3533;51.246;6.850;2023-04-24T07:37:34;1.20;;;1.10;;
6985;SDS011;3533;51.246;6.850;2023-04-24T07:40:00;1.03;;;0.93;;
6985;SDS011;3533;51.246;6.850;2023-04-24T07:42:25;1.20;;;1.10;;
6985;SDS011;3533;51.246;6.850;2023-04-24T07:44:51;1.07;;;1.00;;
6985;SDS011;3533;51.246;6.850;2023-04-24T07:47:16;1.00;;;0.90;;
6985;SDS011;3533;51.246;6.850;2023-04-24T07:49:42;1.20;;;1.10;;
6985;SDS011;3533;51.246;6.850;2023-04-24T07:52:08;1.10;;;1.00;;
6985;SDS011;3533;51.246;6.850;2023-04-24T07:54:33;0.80;;;0.80;;
6985;SDS011;3533;51.246;6.850;2023-04-24T07:56:59;1.07;;;1.00;;
6985;SDS011;3533;51.246;6.850;2023-04-24T07:59:25;1.20;;;1.17;;
6985;SDS011;3533;51.246;6.850;2023-04-24T08:01:51;1.10;;;0.93;;
6985;SDS011;3533;51.246;6.850;2023-04-24T08:04:16;0.90;;;0.90;;
6985;SDS011;3533;51.246;6.850;2023-04-24T08:06:43;0.80;;;0.80;;
6985;SDS011;3533;51.246;6.850;2023-04-24T08:09:08;1.40;;;1.20;;
6985;SDS011;3533;51.246;6.850;2023-04-24T08:11:34;1.30;;;1.20;;
6985;SDS011;3533;51.246;6.850;2023-04-24T08:14:00;0.90;;;0.90;;
6985;SDS011;3533;51.246;6.850;2023-04-24T08:16:26;1.10;;;1.00;;
6985;SDS011;3533;51.246;6.850;2023-04-24T08:18:51;1.63;;;0.97;;
6985;SDS011;3533;51.246;6.850;2023-04-24T08:21:18;1.30;;;1.10;;
6985;SDS011;3533;51.246;6.850;2023-04-24T08:23:46;1.10;;;1.00;;
6985;SDS011;3533;51.246;6.850;2023-04-24T08:26:12;1.00;;;1.00;;
6985;SDS011;3533;51.246;6.850;2023-04-24T08:28:38;1.20;;;1.10;;
6985;SDS011;3533;51.246;6.850;2023-04-24T08:31:04;1.20;;;1.10;;
6985;SDS011;3533;51.246;6.850;2023-04-24T08:33:30;1.03;;;0.93;;
6985;SDS011;3533;51.246;6.850;2023-04-24T08:35:59;1.57;;;1.23;;
6985;SDS011;3533;51.246;6.850;2023-04-24T08:38:26;0.90;;;0.90;;
6985;SDS011;3533;51.246;6.850;2023-04-24T08:40:52;1.13;;;1.03;;
6985;SDS011;3533;51.246;6.850;2023-04-24T08:43:18;1.00;;;0.90;;
6985;SDS011;3533;51.246;6.850;2023-04-24T08:45:45;1.00;;;1.00;;
6985;SDS011;3533;51.246;6.850;2023-04-24T08:48:11;0.97;;;0.90;;
6985;SDS011;3533;51.246;6.850;2023-04-24T08:50:37;0.83;;;0.83;;
6985;SDS011;3533;51.246;6.850;2023-04-24T08:53:03;1.30;;;1.10;;
6985;SDS011;3533;51.246;6.850;2023-04-24T08:55:31;1.10;;;1.00;;
6985;SDS011;3533;51.246;6.850;2023-04-24T08:57:58;0.80;;;0.80;;
6985;SDS011;3533;51.246;6.850;2023-04-24T09:00:25;1.00;;;1.00;;
6985;SDS011;3533;51.246;6.850;2023-04-24T09:02:52;1.23;;;1.00;;
6985;SDS011;3533;51.246;6.850;2023-04-24T09:05:18;1.23;;;0.90;;
6985;SDS011;3533;51.246;6.850;2023-04-24T09:07:49;0.80;;;0.80;;
6985;SDS011;3533;51.246;6.850;2023-04-24T09:10:18;1.00;;;0.90;;
6985;SDS011;3533;51.246;6.850;2023-04-24T09:12:44;1.10;;;1.00;;
6985;SDS011;3533;51.246;6.850;2023-04-24T09:15:10;0.80;;;0.80;;
6985;SDS011;3533;51.246;6.850;2023-04-24T09:17:36;0.80;;;0.80;;
6985;SDS011;3533;51.246;6.850;2023-04-24T09:20:02;0.90;;;0.90;;
6985;SDS011;3533;51.246;6.850;2023-04-24T09:22:29;0.80;;;0.80;;
6985;SDS011;3533;51.246;6.850;2023-04-24T09:25:02;0.80;;;0.80;;
6985;SDS011;3533;51.246;6.850;2023-04-24T09:27:30;1.10;;;0.83;;
6985;SDS011;3533;51.246;6.850;2023-04-24T09:29:57;1.10;;;1.00;;
6985;SDS011;3533;51.246;6.850;2023-04-24T09:32:23;0.90;;;0.90;;
6985;SDS011;3533;51.246;6.850;2023-04-24T09:35:04;0.87;;;0.87;;
6985;SDS011;3533;51.246;6.850;2023-04-24T09:37:36;0.90;;;0.90;;
6985;SDS011;3533;51.246;6.850;2023-04-24T09:42:39;0.90;;;0.90;;
6985;SDS011;3533;51.246;6.850;2023-04-24T09:45:08;0.80;;;0.80;;
6985;SDS011;3533;51.246;6.850;2023-04-24T09:47:38;0.87;;;0.87;;
6985;SDS011;3533;51.246;6.850;2023-04-24T09:50:11;0.83;;;0.83;;
6985;SDS011;3533;51.246;6.850;2023-04-24T09:52:45;2.20;;;0.90;;
6985;SDS011;3533;51.246;6.850;2023-04-24T09:55:21;1.07;;;0.97;;
6985;SDS011;3533;51.246;6.850;2023-04-24T09:57:47;1.17;;;1.07;;
6985;SDS011;3533;51.246;6.850;2023-04-24T10:00:23;1.10;;;0.90;;
6985;SDS011;3533;51.246;6.850;2023-04-24T10:02:53;1.23;;;1.13;;
6985;SDS011;3533;51.246;6.850;2023-04-24T10:05:27;1.00;;;0.93;;
6985;SDS011;3533;51.246;6.850;2023-04-24T10:08:10;1.10;;;1.00;;
6985;SDS011;3533;51.246;6.850;2023-04-24T10:10:38;1.23;;;1.13;;
6985;SDS011;3533;51.246;6.850;2023-04-24T10:13:05;1.20;;;1.10;;
6985;SDS011;3533;51.246;6.850;2023-04-24T10:15:32;1.37;;;1.23;;
6985;SDS011;3533;51.246;6.850;2023-04-24T10:17:58;1.00;;;0.90;;
6985;SDS011;3533;51.246;6.850;2023-04-24T10:20:25;1.20;;;1.10;;
6985;SDS011;3533;51.246;6.850;2023-04-24T10:22:54;1.20;;;1.10;;
6985;SDS011;3533;51.246;6.850;2023-04-24T10:25:21;1.10;;;1.00;;
6985;SDS011;3533;51.246;6.850;2023-04-24T10:27:55;1.10;;;1.00;;
6985;SDS011;3533;51.246;6.850;2023-04-24T10:30:25;1.17;;;1.07;;
6985;SDS011;3533;51.246;6.850;2023-04-24T10:32:51;1.10;;;1.00;;
6985;SDS011;3533;51.246;6.850;2023-04-24T10:35:17;1.33;;;1.23;;
6985;SDS011;3533;51.246;6.850;2023-04-24T10:37:48;1.30;;;1.20;;
6985;SDS011;3533;51.246;6.850;2023-04-24T10:40:33;1.30;;;1.20;;
6985;SDS011;3533;51.246;6.850;2023-04-24T10:43:02;1.17;;;1.10;;
6985;SDS011;3533;51.246;6.850;2023-04-24T10:45:31;1.20;;;1.10;;
6985;SDS011;3533;51.246;6.850;2023-04-24T10:48:09;1.00;;;1.00;;
6985;SDS011;3533;51.246;6.850;2023-04-24T10:50:45;1.13;;;1.03;;
6985;SDS011;3533;51.246;6.850;2023-04-24T10:53:14;1.27;;;1.10;;
6985;SDS011;3533;51.246;6.850;2023-04-24T10:55:46;1.03;;;1.00;;
6985;SDS011;3533;51.246;6.850;2023-04-24T10:58:35;1.27;;;1.17;;
6985;SDS011;3533;51.246;6.850;2023-04-24T11:01:06;1.20;;;1.10;;
6985;SDS011;3533;51.246;6.850;2023-04-24T11:03:33;1.03;;;1.00;;
6985;SDS011;3533;51.246;6.850;2023-04-24T11:06:01;1.30;;;1.20;;
6985;SDS011;3533;51.246;6.850;2023-04-24T11:08:32;1.30;;;1.20;;
6985;SDS011;3533;51.246;6.850;2023-04-24T11:11:14;1.37;;;1.27;;
6985;SDS011;3533;51.246;6.850;2023-04-24T11:19:07;1.27;;;1.17;;
6985;SDS011;3533;51.246;6.850;2023-04-24T11:21:41;1.40;;;1.30;;
6985;SDS011;3533;51.246;6.850;2023-04-24T11:26:58;1.23;;;1.13;;
6985;SDS011;3533;51.246;6.850;2023-04-24T11:29:42;1.20;;;1.10;;
6985;SDS011;3533;51.246;6.850;2023-04-24T11:32:53;1.40;;;1.30;;
6985;SDS011;3533;51.246;6.850;2023-04-24T11:37:36;1.23;;;1.13;;
6985;SDS011;3533;51.246;6.850;2023-04-24T11:40:06;1.10;;;1.00;;
6985;SDS011;3533;51.246;6.850;2023-04-24T11:42:37;1.37;;;1.27;;
6985;SDS011;3533;51.246;6.850;2023-04-24T11:45:12;1.30;;;1.20;;
6985;SDS011;3533;51.246;6.850;2023-04-24T11:47:38;1.23;;;1.13;;
6985;SDS011;3533;51.246;6.850;2023-04-24T11:50:05;1.30;;;1.20;;
6985;SDS011;3533;51.246;6.850;2023-04-24T11:52:33;1.10;;;1.00;;
6985;SDS011;3533;51.246;6.850;2023-04-24T11:55:02;1.20;;;1.10;;
6985;SDS011;3533;51.246;6.850;2023-04-24T11:57:28;1.23;;;1.13;;
6985;SDS011;3533;51.246;6.850;2023-04-24T11:59:58;1.30;;;1.20;;
6985;SDS011;3533;51.246;6.850;2023-04-24T12:02:25;1.33;;;1.23;;
6985;SDS011;3533;51.246;6.850;2023-04-24T12:04:55;1.17;;;1.07;;
6985;SDS011;3533;51.246;6.850;2023-04-24T12:07:21;1.13;;;1.03;;
6985;SDS011;3533;51.246;6.850;2023-04-24T12:09:49;1.07;;;1.00;;
6985;SDS011;3533;51.246;6.850;2023-04-24T12:12:22;1.40;;;1.30;;
6985;SDS011;3533;51.246;6.850;2023-04-24T12:14:57;1.20;;;1.10;;
6985;SDS011;3533;51.246;6.850;2023-04-24T12:17:26;1.20;;;1.10;;
6985;SDS011;3533;51.246;6.850;2023-04-24T12:20:02;1.33;;;1.10;;
6985;SDS011;3533;51.246;6.850;2023-04-24T12:25:13;1.30;;;1.20;;
6985;SDS011;3533;51.246;6.850;2023-04-24T12:27:40;1.10;;;1.00;;
6985;SDS011;3533;51.246;6.850;2023-04-24T12:30:09;1.10;;;1.00;;
6985;SDS011;3533;51.246;6.850;2023-04-24T12:32:57;0.90;;;0.90;;
6985;SDS011;3533;51.246;6.850;2023-04-24T12:35:25;1.30;;;1.20;;
6985;SDS011;3533;51.246;6.850;2023-04-24T12:38:04;1.27;;;1.10;;
6985;SDS011;3533;51.246;6.850;2023-04-24T12:40:34;1.17;;;1.07;;
6985;SDS011;3533;51.246;6.850;2023-04-24T12:43:00;1.20;;;1.10;;
6985;SDS011;3533;51.246;6.850;2023-04-24T12:45:26;1.10;;;1.00;;
6985;SDS011;3533;51.246;6.850;2023-04-24T12:47:53;1.10;;;1.00;;
6985;SDS011;3533;51.246;6.850;2023-04-24T12:50:18;1.00;;;0.90;;
6985;SDS011;3533;51.246;6.850;2023-04-24T12:52:44;1.20;;;1.10;;
6985;SDS011;3533;51.246;6.850;2023-04-24T12:55:10;1.10;;;1.00;;
6985;SDS011;3533;51.246;6.850;2023-04-24T12:57:37;1.10;;;1.00;;
6985;SDS011;3533;51.246;6.850;2023-04-24T13:00:05;1.17;;;1.07;;
6985;SDS011;3533;51.246;6.850;2023-04-24T13:02:32;1.03;;;0.97;;
6985;SDS011;3533;51.246;6.850;2023-04-24T13:04:58;1.23;;;1.13;;
6985;SDS011;3533;51.246;6.850;2023-04-24T13:07:25;1.13;;;1.00;;
6985;SDS011;3533;51.246;6.850;2023-04-24T13:09:51;1.03;;;0.93;;
6985;SDS011;3533;51.246;6.850;2023-04-24T13:12:17;1.13;;;1.03;;
6985;SDS011;3533;51.246;6.850;2023-04-24T13:14:43;0.90;;;0.90;;
6985;SDS011;3533;51.246;6.850;2023-04-24T13:17:10;2.10;;;1.07;;
6985;SDS011;3533;51.246;6.850;2023-04-24T13:19:37;0.90;;;0.90;;
6985;SDS011;3533;51.246;6.850;2023-04-24T13:22:04;1.10;;;1.00;;
6985;SDS011;3533;51.246;6.850;2023-04-24T13:24:30;1.23;;;1.10;;
6985;SDS011;3533;51.246;6.850;2023-04-24T13:26:57;2.10;;;1.00;;
6985;SDS011;3533;51.246;6.850;2023-04-24T13:29:23;1.30;;;1.10;;
6985;SDS011;3533;51.246;6.850;2023-04-24T13:31:51;1.83;;;1.00;;
6985;SDS011;3533;51.246;6.850;2023-04-24T13:34:21;1.30;;;1.20;;
6985;SDS011;3533;51.246;6.850;2023-04-24T13:36:54;1.17;;;1.10;;
6985;SDS011;3533;51.246;6.850;2023-04-24T13:39:21;1.10;;;1.00;;
6985;SDS011;3533;51.246;6.850;2023-04-24T13:41:47;1.30;;;1.20;;
6985;SDS011;3533;51.246;6.850;2023-04-24T13:44:13;1.23;;;1.13;;
6985;SDS011;3533;51.246;6.850;2023-04-24T13:46:40;1.20;;;1.10;;
6985;SDS011;3533;51.246;6.850;2023-04-24T13:49:06;0.90;;;0.90;;
6985;SDS011;3533;51.246;6.850;2023-04-24T13:51:32;0.90;;;0.90;;
6985;SDS011;3533;51.246;6.850;2023-04-24T13:53:58;1.30;;;1.20;;
6985;SDS011;3533;51.246;6.850;2023-04-24T13:56:24;1.10;;;1.00;;
6985;SDS011;3533;51.246;6.850;2023-04-24T13:58:51;1.10;;;1.00;;
6985;SDS011;3533;51.246;6.850;2023-04-24T14:01:16;1.10;;;1.00;;
6985;SDS011;3533;51.246;6.850;2023-04-24T14:03:42;1.00;;;0.90;;
6985;SDS011;3533;51.246;6.850;2023-04-24T14:06:10;0.93;;;0.93;;
6985;SDS011;3533;51.246;6.850;2023-04-24T14:08:36;0.90;;;0.90;;
6985;SDS011;3533;51.246;6.850;2023-04-24T14:11:01;1.40;;;1.30;;
6985;SDS011;3533;51.246;6.850;2023-04-24T14:13:27;1.10;;;1.00;;
6985;SDS011;3533;51.246;6.850;2023-04-24T14:15:53;0.90;;;0.90;;
6985;SDS011;3533;51.246;6.850;2023-04-24T14:18:19;0.80;;;0.80;;
6985;SDS011;3533;51.246;6.850;2023-04-24T14:20:45;1.17;;;1.07;;
6985;SDS011;3533;51.246;6.850;2023-04-24T14:23:10;0.90;;;0.90;;
6985;SDS011;3533;51.246;6.850;2023-04-24T14:25:36;0.90;;;0.90;;
6985;SDS011;3533;51.246;6.850;2023-04-24T14:28:02;1.30;;;1.20;;
6985;SDS011;3533;51.246;6.850;2023-04-24T14:30:27;1.20;;;1.10;;
6985;SDS011;3533;51.246;6.850;2023-04-24T14:32:53;0.90;;;0.90;;
6985;SDS011;3533;51.246;6.850;2023-04-24T14:35:18;1.00;;;0.90;;
6985;SDS011;3533;51.246;6.850;2023-04-24T14:37:44;0.90;;;0.90;;
6985;SDS011;3533;51.246;6.850;2023-04-24T14:40:10;1.00;;;0.90;;
6985;SDS011;3533;51.246;6.850;2023-04-24T14:42:35;1.10;;;1.00;;
6985;SDS011;3533;51.246;6.850;2023-04-24T14:45:01;1.00;;;0.90;;
6985;SDS011;3533;51.246;6.850;2023-04-24T14:47:27;0.87;;;0.87;;
6985;SDS011;3533;51.246;6.850;2023-04-24T14:49:54;1.00;;;0.90;;
6985;SDS011;3533;51.246;6.850;2023-04-24T14:52:19;1.27;;;1.17;;
6985;SDS011;3533;51.246;6.850;2023-04-24T14:54:45;0.80;;;0.80;;
6985;SDS011;3533;51.246;6.850;2023-04-24T14:57:10;1.13;;;1.07;;
6985;SDS011;3533;51.246;6.850;2023-04-24T14:59:36;1.87;;;1.00;;
6985;SDS011;3533;51.246;6.850;2023-04-24T15:02:01;0.80;;;0.80;;
6985;SDS011;3533;51.246;6.850;2023-04-24T15:04:27;1.10;;;1.00;;
6985;SDS011;3533;51.246;6.850;2023-04-24T15:06:54;1.23;;;0.80;;
6985;SDS011;3533;51.246;6.850;2023-04-24T15:09:20;0.97;;;0.90;;
6985;SDS011;3533;51.246;6.850;2023-04-24T15:11:47;1.10;;;1.00;;
6985;SDS011;3533;51.246;6.850;2023-04-24T15:14:13;1.07;;;0.90;;
6985;SDS011;3533;51.246;6.850;2023-04-24T15:16:39;1.00;;;0.90;;
6985;SDS011;3533;51.246;6.850;2023-04-24T15:19:05;1.10;;;1.00;;
6985;SDS011;3533;51.246;6.850;2023-04-24T15:21:31;1.10;;;1.00;;
6985;SDS011;3533;51.246;6.850;2023-04-24T15:23:57;1.10;;;1.00;;
6985;SDS011;3533;51.246;6.850;2023-04-24T15:26:22;0.80;;;0.80;;
6985;SDS011;3533;51.246;6.850;2023-04-24T15:28:49;2.53;;;0.80;;
6985;SDS011;3533;51.246;6.850;2023-04-24T15:31:14;0.90;;;0.90;;